KSGU/SGU METAR and TAF weather

Enter ICAO airport designator
Station Type Date Time Source
KSGU METAR 2019/04/18 09:56 UTC NOAA

KSGU 180956Z AUTO 16005KT 10SM CLR 10/02 A3018 RMK AO2 SLP204 T01000022 PNO $


Station Type Date Time Source
KSGU Decoded METAR 2019/04/18 09:56 UTC NOAA

St George, St George Municipal Airport, UT, United States (KSGU) 37-05N 113-36W
Apr 18, 2019 - 05:56 AM EDT / 2019.04.18 0956 UTC
Wind: from the SSE (160 degrees) at 6 MPH (5 KT):0
Visibility: 10 mile(s):0
Sky conditions: clear
Temperature: 50.0 F (10.0 C)
Dew Point: 36.0 F (2.2 C)
Relative Humidity: 58%
Pressure (altimeter): 30.18 in. Hg (1022 hPa)
ob: KSGU 180956Z AUTO 16005KT 10SM CLR 10/02 A3018 RMK AO2 SLP204 T01000022 PNO
cycle: 10

Station Type Date Time Source
KSGU TAF 2019/04/18 06:58 UTC NOAA

TAF
AMD KSGU 180557Z 1806/1906 06009KT P6SM SKC
FM181900 29006KT P6SM SKC
FM190200 06007KT P6SM SKC

Example: see airport list